Darstellungsparameter: Aktuell verwendete Einstellungen:
Skalierung der Graphiken ... ?
xyx+y,   Skalierungsfaktor:      Skalierung: Modus: x, Faktor: 1
Darstellungszeitraum ... ?
Vom - - bis: - -   Zeitraum: 09.11.2020 - 09.11.2020
Min/Max/Avg-Anzeige ... ?
Zeige MMA aktuell
Zeige MMA Monat
Zeige MMA alles
Zeige --A aktuell
Zeige --A Monat
Zeige --A alles
Keine MMA-Anzeige
MMA:
Keine MMA-Graphiken
MMA-Basis: 09.11.2020 - 09.11.2020
Quicknavigation für Darstellung... ?
Tage:      1T, 2T, 3T, 5T -1T -2T -3T -5T +1T +2T +3T +5T
Wochen: 1W, 2W, 3W -1W -2W -3W +1W +2W +3W
Monate: 1M, 3M, 6M -1M -3M -6M +1M +3M +6M
Jahre:    1J, 3J, 5J, 10J -1J -3J -5J -10J +1J +3J +5J +10J
Nutze für die Darstellung ... ?
Originaldaten oder Mittelwerte auf ...
Stundenbasis Tagesbasis Wochenbasis
Monatsbasis Jahresbasis      Datenbasis: Original-Daten
Darstellen als:
Statistik (Auto) Statistik J:M      Darstellung:
Zur Graphik,    zurück zur Übersicht aller Sensoren.
 
Tabellarische Datenbersicht: ?
 
Sensor: Nr:Datum:Temp:Feuchte:Taupunkt:
Aussen-T/F 1 09-11-2020 00:00:00 9.6 C 96 % 8.99 C
2 09-11-2020 00:05:00 9.6 C 96 % 8.99 C
3 09-11-2020 00:10:00 9.6 C 96 % 8.99 C
4 09-11-2020 00:15:00 9.5 C 96 % 8.89 C
5 09-11-2020 00:20:00 9.5 C 96 % 8.89 C
6 09-11-2020 00:25:00 9.5 C 96 % 8.89 C
7 09-11-2020 00:30:00 9.4 C 96 % 8.8 C
8 09-11-2020 00:35:00 9.4 C 96 % 8.8 C
9 09-11-2020 00:40:00 9.4 C 96 % 8.8 C
10 09-11-2020 00:45:00 9.3 C 96 % 8.7 C
11 09-11-2020 00:50:00 9.3 C 96 % 8.7 C
12 09-11-2020 00:55:00 9.3 C 96 % 8.7 C
13 09-11-2020 01:00:00 9.4 C 96 % 8.8 C
14 09-11-2020 01:05:00 9.4 C 96 % 8.8 C
15 09-11-2020 01:10:00 9.4 C 96 % 8.8 C
16 09-11-2020 01:15:00 9.4 C 96 % 8.8 C
17 09-11-2020 01:20:00 9.4 C 96 % 8.8 C
18 09-11-2020 01:25:00 9.4 C 96 % 8.8 C
19 09-11-2020 01:30:00 9.4 C 96 % 8.8 C
20 09-11-2020 01:35:00 9.4 C 96 % 8.8 C
21 09-11-2020 01:40:00 9.4 C 96 % 8.8 C
22 09-11-2020 01:45:00 9.4 C 96 % 8.8 C
23 09-11-2020 01:50:00 9.4 C 96 % 8.8 C
24 09-11-2020 01:55:00 9.4 C 96 % 8.8 C
25 09-11-2020 02:00:00 9.4 C 96 % 8.8 C
Sensor: Nr:Datum:Temp:Feuchte:Taupunkt:
Aussen-T/F 26 09-11-2020 02:05:00 9.4 C 96 % 8.8 C
27 09-11-2020 02:10:00 9.4 C 96 % 8.8 C
28 09-11-2020 02:15:00 9.4 C 96 % 8.8 C
29 09-11-2020 02:20:00 9.4 C 96 % 8.8 C
30 09-11-2020 02:25:00 9.4 C 96 % 8.8 C
31 09-11-2020 02:30:00 9.4 C 96 % 8.8 C
32 09-11-2020 02:35:00 9.3 C 96 % 8.7 C
33 09-11-2020 02:40:00 9.3 C 96 % 8.7 C
34 09-11-2020 02:45:00 9.3 C 96 % 8.7 C
35 09-11-2020 02:50:00 9.3 C 96 % 8.7 C
36 09-11-2020 02:55:00 9.3 C 96 % 8.7 C
37 09-11-2020 03:00:00 9.4 C 96 % 8.8 C
38 09-11-2020 03:05:00 9.4 C 96 % 8.8 C
39 09-11-2020 03:10:00 9.4 C 96 % 8.8 C
40 09-11-2020 03:15:00 9.3 C 96 % 8.7 C
41 09-11-2020 03:20:00 9.3 C 96 % 8.7 C
42 09-11-2020 03:25:00 9.3 C 96 % 8.7 C
43 09-11-2020 03:30:00 9.3 C 96 % 8.7 C
44 09-11-2020 03:35:00 9.3 C 97 % 8.85 C
45 09-11-2020 03:40:00 9.3 C 96 % 8.7 C
46 09-11-2020 03:45:00 9.3 C 96 % 8.7 C
47 09-11-2020 03:50:00 9.3 C 96 % 8.7 C
48 09-11-2020 03:55:00 9.3 C 96 % 8.7 C
49 09-11-2020 04:00:00 9.3 C 96 % 8.7 C
50 09-11-2020 04:05:00 9.3 C 97 % 8.85 C
Sensor: Nr:Datum:Temp:Feuchte:Taupunkt:
Aussen-T/F 51 09-11-2020 04:10:00 9.3 C 97 % 8.85 C
52 09-11-2020 04:15:00 9.3 C 97 % 8.85 C
53 09-11-2020 04:20:00 9.3 C 97 % 8.85 C
54 09-11-2020 04:25:00 9.3 C 97 % 8.85 C
55 09-11-2020 04:30:00 9.3 C 96 % 8.7 C
56 09-11-2020 04:35:00 9.2 C 96 % 8.6 C
57 09-11-2020 04:40:00 9.1 C 96 % 8.5 C
58 09-11-2020 04:45:00 9.1 C 96 % 8.5 C
59 09-11-2020 04:50:00 8.9 C 96 % 8.3 C
60 09-11-2020 04:55:00 8.9 C 96 % 8.3 C
61 09-11-2020 05:00:00 8.8 C 96 % 8.2 C
62 09-11-2020 05:05:00 8.7 C 96 % 8.1 C
63 09-11-2020 05:10:00 8.6 C 96 % 8 C
64 09-11-2020 05:15:00 8.4 C 96 % 7.8 C
65 09-11-2020 05:20:00 8.3 C 96 % 7.7 C
66 09-11-2020 05:25:00 8.2 C 96 % 7.6 C
67 09-11-2020 05:30:00 8.3 C 96 % 7.7 C
68 09-11-2020 05:35:00 8.3 C 96 % 7.7 C
69 09-11-2020 05:40:00 8.3 C 97 % 7.85 C
70 09-11-2020 05:45:00 8.3 C 97 % 7.85 C
71 09-11-2020 05:50:00 8.4 C 97 % 7.95 C
72 09-11-2020 05:55:00 8.5 C 97 % 8.05 C
73 09-11-2020 06:00:00 8.6 C 97 % 8.15 C
74 09-11-2020 06:05:00 8.5 C 97 % 8.05 C
75 09-11-2020 06:10:00 8.4 C 97 % 7.95 C
Sensor: Nr:Datum:Temp:Feuchte:Taupunkt:
Aussen-T/F 76 09-11-2020 06:15:00 8.4 C 97 % 7.95 C
77 09-11-2020 06:20:00 8.4 C 97 % 7.95 C
78 09-11-2020 06:25:00 8.3 C 97 % 7.85 C
79 09-11-2020 06:30:00 8.3 C 96 % 7.7 C
80 09-11-2020 06:35:00 8.2 C 96 % 7.6 C
81 09-11-2020 06:40:00 8.1 C 96 % 7.5 C
82 09-11-2020 06:45:00 8.1 C 97 % 7.65 C
83 09-11-2020 06:50:00 8.1 C 97 % 7.65 C
84 09-11-2020 06:55:00 8.2 C 97 % 7.75 C
85 09-11-2020 07:00:00 8.2 C 97 % 7.75 C
86 09-11-2020 07:05:00 8.2 C 97 % 7.75 C
87 09-11-2020 07:10:00 8.2 C 97 % 7.75 C
88 09-11-2020 07:15:00 8.2 C 97 % 7.75 C
89 09-11-2020 07:20:00 8.2 C 97 % 7.75 C
90 09-11-2020 07:25:00 8.2 C 97 % 7.75 C
91 09-11-2020 07:30:00 8.2 C 97 % 7.75 C
92 09-11-2020 07:35:00 8.1 C 97 % 7.65 C
93 09-11-2020 07:40:00 7.9 C 97 % 7.45 C
94 09-11-2020 07:45:00 7.8 C 96 % 7.2 C
95 09-11-2020 07:50:00 7.8 C 97 % 7.35 C
96 09-11-2020 07:55:00 7.9 C 97 % 7.45 C
97 09-11-2020 08:00:00 7.9 C 97 % 7.45 C
98 09-11-2020 08:05:00 8 C 97 % 7.55 C
99 09-11-2020 08:10:00 8.1 C 97 % 7.65 C
100 09-11-2020 08:15:00 8.2 C 97 % 7.75 C
Sensor: Nr:Datum:Temp:Feuchte:Taupunkt:
Aussen-T/F 101 09-11-2020 08:20:00 8.3 C 97 % 7.85 C
102 09-11-2020 08:25:00 8.3 C 97 % 7.85 C
103 09-11-2020 08:30:00 8.4 C 97 % 7.95 C
104 09-11-2020 08:35:00 8.5 C 97 % 8.05 C
105 09-11-2020 08:40:00 8.5 C 97 % 8.05 C
106 09-11-2020 08:45:00 8.6 C 97 % 8.15 C
107 09-11-2020 08:50:00 8.7 C 97 % 8.25 C
108 09-11-2020 08:55:00 8.7 C 97 % 8.25 C
109 09-11-2020 09:00:00 8.8 C 97 % 8.35 C
110 09-11-2020 09:05:00 8.8 C 97 % 8.35 C
111 09-11-2020 09:10:00 8.8 C 97 % 8.35 C
112 09-11-2020 09:15:00 8.8 C 97 % 8.35 C
113 09-11-2020 09:20:00 8.8 C 97 % 8.35 C
114 09-11-2020 09:25:00 8.8 C 97 % 8.35 C
115 09-11-2020 09:30:00 8.9 C 97 % 8.45 C
116 09-11-2020 09:35:00 9 C 97 % 8.55 C
117 09-11-2020 09:40:00 9.1 C 97 % 8.65 C
118 09-11-2020 09:45:00 9.2 C 97 % 8.75 C
119 09-11-2020 09:50:00 9.3 C 97 % 8.85 C
120 09-11-2020 09:55:00 9.3 C 97 % 8.85 C
121 09-11-2020 10:00:00 9.4 C 97 % 8.95 C
122 09-11-2020 10:05:00 9.4 C 97 % 8.95 C
123 09-11-2020 10:10:00 9.4 C 97 % 8.95 C
124 09-11-2020 10:15:00 9.5 C 97 % 9.05 C
125 09-11-2020 10:20:00 9.6 C 97 % 9.15 C
Sensor: Nr:Datum:Temp:Feuchte:Taupunkt:
Aussen-T/F 126 09-11-2020 10:25:00 9.6 C 97 % 9.15 C
127 09-11-2020 10:30:00 9.7 C 97 % 9.25 C
128 09-11-2020 10:35:00 9.8 C 97 % 9.35 C
129 09-11-2020 10:40:00 9.9 C 98 % 9.6 C
130 09-11-2020 10:45:00 10.1 C 97 % 9.65 C
131 09-11-2020 10:50:00 10.3 C 98 % 10 C
132 09-11-2020 10:55:00 10.5 C 98 % 10.2 C
133 09-11-2020 11:00:00 10.6 C 98 % 10.3 C
134 09-11-2020 11:05:00 10.6 C 98 % 10.3 C
135 09-11-2020 11:10:00 10.7 C 98 % 10.4 C
136 09-11-2020 11:15:00 10.8 C 98 % 10.5 C
137 09-11-2020 11:20:00 10.9 C 98 % 10.6 C
138 09-11-2020 11:25:00 11 C 98 % 10.7 C
139 09-11-2020 11:30:00 11.1 C 98 % 10.8 C
140 09-11-2020 11:35:00 11.2 C 98 % 10.9 C
141 09-11-2020 11:40:00 11.2 C 98 % 10.9 C
142 09-11-2020 11:45:00 11.3 C 98 % 11 C
143 09-11-2020 11:50:00 11.3 C 98 % 11 C
144 09-11-2020 11:55:00 11.4 C 98 % 11.1 C
145 09-11-2020 12:00:00 11.4 C 98 % 11.1 C
146 09-11-2020 12:05:00 11.4 C 98 % 11.1 C
147 09-11-2020 12:10:00 11.5 C 97 % 11.04 C
148 09-11-2020 12:15:00 11.5 C 97 % 11.04 C
149 09-11-2020 12:20:00 11.6 C 97 % 11.14 C
150 09-11-2020 12:25:00 11.6 C 98 % 11.29 C
Sensor: Nr:Datum:Temp:Feuchte:Taupunkt:
Aussen-T/F 151 09-11-2020 12:30:00 11.7 C 98 % 11.39 C
152 09-11-2020 12:35:00 11.8 C 98 % 11.49 C
153 09-11-2020 12:40:00 11.9 C 98 % 11.59 C
154 09-11-2020 12:45:00 12.2 C 98 % 11.89 C
155 09-11-2020 12:50:00 12.4 C 98 % 12.09 C
156 09-11-2020 12:55:00 12.6 C 98 % 12.29 C
157 09-11-2020 13:00:00 12.7 C 98 % 12.39 C
158 09-11-2020 13:05:00 12.8 C 98 % 12.49 C
159 09-11-2020 13:10:00 12.8 C 98 % 12.49 C
160 09-11-2020 13:15:00 12.9 C 98 % 12.59 C
161 09-11-2020 13:20:00 13.1 C 98 % 12.79 C
162 09-11-2020 13:25:00 13.1 C 98 % 12.79 C
163 09-11-2020 13:30:00 13.2 C 97 % 12.73 C
164 09-11-2020 13:35:00 13.1 C 97 % 12.63 C
165 09-11-2020 13:40:00 13.2 C 97 % 12.73 C
166 09-11-2020 13:45:00 13.3 C 96 % 12.68 C
167 09-11-2020 13:50:00 13.4 C 96 % 12.78 C
168 09-11-2020 13:55:00 13.4 C 94 % 12.45 C
169 09-11-2020 14:00:00 13.6 C 94 % 12.65 C
170 09-11-2020 14:05:00 13.6 C 93 % 12.49 C
171 09-11-2020 14:10:00 13.6 C 92 % 12.33 C
172 09-11-2020 14:15:00 13.7 C 92 % 12.42 C
173 09-11-2020 14:20:00 13.7 C 92 % 12.42 C
174 09-11-2020 14:25:00 13.8 C 92 % 12.52 C
175 09-11-2020 14:30:00 13.8 C 92 % 12.52 C
Sensor: Nr:Datum:Temp:Feuchte:Taupunkt:
Aussen-T/F 176 09-11-2020 14:35:00 13.7 C 92 % 12.42 C
177 09-11-2020 14:40:00 13.7 C 92 % 12.42 C
178 09-11-2020 14:45:00 13.7 C 93 % 12.59 C
179 09-11-2020 14:50:00 13.6 C 93 % 12.49 C
180 09-11-2020 14:55:00 13.6 C 93 % 12.49 C
181 09-11-2020 15:00:00 13.6 C 93 % 12.49 C
182 09-11-2020 15:05:00 13.5 C 93 % 12.39 C
183 09-11-2020 15:10:00 13.4 C 93 % 12.29 C
184 09-11-2020 15:15:00 13.3 C 93 % 12.19 C
185 09-11-2020 15:20:00 13.3 C 93 % 12.19 C
186 09-11-2020 15:25:00 13.2 C 93 % 12.09 C
187 09-11-2020 15:30:00 13.2 C 93 % 12.09 C
188 09-11-2020 15:35:00 13.1 C 93 % 11.99 C
189 09-11-2020 15:40:00 13.1 C 93 % 11.99 C
190 09-11-2020 15:45:00 13 C 93 % 11.9 C
191 09-11-2020 15:50:00 13 C 93 % 11.9 C
192 09-11-2020 15:55:00 12.9 C 93 % 11.8 C
193 09-11-2020 16:00:00 12.8 C 93 % 11.7 C
194 09-11-2020 16:05:00 12.8 C 93 % 11.7 C
195 09-11-2020 16:10:00 12.7 C 93 % 11.6 C
196 09-11-2020 16:15:00 12.7 C 94 % 11.76 C
197 09-11-2020 16:20:00 12.6 C 93 % 11.5 C
198 09-11-2020 16:25:00 12.5 C 94 % 11.56 C
199 09-11-2020 16:30:00 12.4 C 94 % 11.46 C
200 09-11-2020 16:35:00 12.4 C 94 % 11.46 C
Sensor: Nr:Datum:Temp:Feuchte:Taupunkt:
Aussen-T/F 201 09-11-2020 16:40:00 12.3 C 94 % 11.36 C
202 09-11-2020 16:45:00 12.2 C 94 % 11.26 C
203 09-11-2020 16:50:00 12.2 C 94 % 11.26 C
204 09-11-2020 16:55:00 12.2 C 94 % 11.26 C
205 09-11-2020 17:00:00 12.1 C 94 % 11.16 C
206 09-11-2020 17:05:00 11.9 C 94 % 10.97 C
207 09-11-2020 17:10:00 11.8 C 94 % 10.87 C
208 09-11-2020 17:15:00 11.7 C 94 % 10.77 C
209 09-11-2020 17:20:00 11.6 C 94 % 10.67 C
210 09-11-2020 17:25:00 11.6 C 94 % 10.67 C
211 09-11-2020 17:30:00 11.4 C 94 % 10.47 C
212 09-11-2020 17:35:00 11.4 C 94 % 10.47 C
213 09-11-2020 17:40:00 11.3 C 94 % 10.37 C
214 09-11-2020 17:45:00 11.2 C 94 % 10.27 C
215 09-11-2020 17:50:00 11.1 C 95 % 10.33 C
216 09-11-2020 17:55:00 11.1 C 95 % 10.33 C
217 09-11-2020 18:00:00 11 C 95 % 10.23 C
218 09-11-2020 18:05:00 10.8 C 94 % 9.87 C
219 09-11-2020 18:10:00 10.7 C 95 % 9.93 C
220 09-11-2020 18:15:00 10.6 C 95 % 9.83 C
221 09-11-2020 18:20:00 10.4 C 95 % 9.63 C
222 09-11-2020 18:25:00 10.4 C 95 % 9.63 C
223 09-11-2020 18:30:00 10.4 C 95 % 9.63 C
224 09-11-2020 18:35:00 10.4 C 95 % 9.63 C
225 09-11-2020 18:40:00 10.3 C 95 % 9.54 C
Sensor: Nr:Datum:Temp:Feuchte:Taupunkt:
Aussen-T/F 226 09-11-2020 18:45:00 10.3 C 95 % 9.54 C
227 09-11-2020 18:50:00 10.2 C 95 % 9.44 C
228 09-11-2020 18:55:00 10.1 C 95 % 9.34 C
229 09-11-2020 19:00:00 10 C 95 % 9.24 C
230 09-11-2020 19:05:00 9.9 C 95 % 9.14 C
231 09-11-2020 19:10:00 9.8 C 95 % 9.04 C
232 09-11-2020 19:15:00 9.8 C 95 % 9.04 C
233 09-11-2020 19:20:00 9.7 C 96 % 9.09 C
234 09-11-2020 19:25:00 9.7 C 95 % 8.94 C
235 09-11-2020 19:30:00 9.6 C 95 % 8.84 C
236 09-11-2020 19:35:00 9.6 C 96 % 8.99 C
237 09-11-2020 19:40:00 9.6 C 96 % 8.99 C
238 09-11-2020 19:45:00 9.5 C 96 % 8.89 C
239 09-11-2020 19:50:00 9.4 C 96 % 8.8 C
240 09-11-2020 19:55:00 9.4 C 96 % 8.8 C
241 09-11-2020 20:00:00 9.3 C 96 % 8.7 C
242 09-11-2020 20:05:00 9.3 C 96 % 8.7 C
243 09-11-2020 20:10:00 9.3 C 96 % 8.7 C
244 09-11-2020 20:15:00 9.3 C 96 % 8.7 C
245 09-11-2020 20:20:00 9.2 C 96 % 8.6 C
246 09-11-2020 20:25:00 9.1 C 96 % 8.5 C
247 09-11-2020 20:30:00 9.1 C 96 % 8.5 C
248 09-11-2020 20:35:00 9 C 96 % 8.4 C
249 09-11-2020 20:40:00 8.9 C 96 % 8.3 C
250 09-11-2020 20:45:00 8.9 C 96 % 8.3 C
Sensor: Nr:Datum:Temp:Feuchte:Taupunkt:
Aussen-T/F 251 09-11-2020 20:50:00 8.8 C 96 % 8.2 C
252 09-11-2020 20:55:00 8.8 C 96 % 8.2 C
253 09-11-2020 21:00:00 8.7 C 96 % 8.1 C
254 09-11-2020 21:05:00 8.6 C 96 % 8 C
255 09-11-2020 21:10:00 8.5 C 96 % 7.9 C
256 09-11-2020 21:15:00 8.4 C 96 % 7.8 C
257 09-11-2020 21:20:00 8.3 C 96 % 7.7 C
258 09-11-2020 21:25:00 8.2 C 96 % 7.6 C
259 09-11-2020 21:30:00 8.1 C 96 % 7.5 C
260 09-11-2020 21:35:00 8 C 96 % 7.4 C
261 09-11-2020 21:40:00 7.9 C 96 % 7.3 C
262 09-11-2020 21:45:00 7.8 C 96 % 7.2 C
263 09-11-2020 21:50:00 7.8 C 96 % 7.2 C
264 09-11-2020 21:55:00 7.7 C 96 % 7.1 C
265 09-11-2020 22:00:00 7.6 C 96 % 7 C
266 09-11-2020 22:05:00 7.5 C 96 % 6.9 C
267 09-11-2020 22:10:00 7.4 C 96 % 6.8 C
268 09-11-2020 22:15:00 7.3 C 96 % 6.71 C
269 09-11-2020 22:20:00 7.3 C 96 % 6.71 C
270 09-11-2020 22:25:00 7.2 C 96 % 6.61 C
271 09-11-2020 22:30:00 7.2 C 96 % 6.61 C
272 09-11-2020 22:35:00 7.1 C 96 % 6.51 C
273 09-11-2020 22:40:00 7 C 96 % 6.41 C
274 09-11-2020 22:45:00 7.1 C 96 % 6.51 C
275 09-11-2020 22:50:00 7 C 96 % 6.41 C
Sensor: Nr:Datum:Temp:Feuchte:Taupunkt:
Aussen-T/F 276 09-11-2020 22:55:00 7 C 96 % 6.41 C
277 09-11-2020 23:00:00 6.9 C 96 % 6.31 C
278 09-11-2020 23:05:00 6.9 C 96 % 6.31 C
279 09-11-2020 23:10:00 6.8 C 96 % 6.21 C
280 09-11-2020 23:15:00 6.7 C 96 % 6.11 C
281 09-11-2020 23:20:00 6.7 C 96 % 6.11 C
282 09-11-2020 23:25:00 6.7 C 96 % 6.11 C
283 09-11-2020 23:30:00 6.7 C 96 % 6.11 C
284 09-11-2020 23:35:00 6.7 C 96 % 6.11 C
285 09-11-2020 23:40:00 6.6 C 96 % 6.01 C
286 09-11-2020 23:45:00 6.4 C 96 % 5.81 C
287 09-11-2020 23:50:00 6.3 C 96 % 5.71 C
288 09-11-2020 23:55:00 6.2 C 96 % 5.61 C

Legende:
   Min
   Max


Maximal/Minimal-Werte vom 09.11.2020 - 09.11.2020

Sensor Min Max Avg
Temp
(Aussen-T/F)
6.2 °C
09-11-2020  23:55:00
13.8 °C
09-11-2020  14:25:00
9.86 °C
Feuchte
(Aussen-T/F)
92 %
09-11-2020  14:10:00
98 %
09-11-2020  10:40:00
95.93 %
Taupunkt
(Aussen-T/F)
5.61 C
09-11-2020  23:55:00
12.79 C
09-11-2020  13:20:00
9.21 C

Die Daten stammen von einer Davis Vantage Pro 2 Wetter-Station und werden unter Linux mit der Software wview2wettercgi und aufbereitet. Alle Angaben erfolgen ohne Gewähr für ihre Vollständigkeit oder Richtigkeit.
Kontakt: Rainer Krienke krienke@uni-koblenz.de . Meine Webseiten an der Uni Koblenz oder privat.
Version: $Revision: 0.78 $